createdAt,value
2023-04-14T00:00:06.463Z,98144.30
2023-04-14T00:02:43.864Z,98144.70
2023-04-14T00:05:12.377Z,98141.66
2023-04-14T00:07:40.896Z,98143.94
2023-04-14T00:10:09.959Z,98142.02
2023-04-14T00:12:38.580Z,98147.52
2023-04-14T00:15:07.105Z,98144.41
2023-04-14T00:17:37.435Z,98135.48
2023-04-14T00:20:06.596Z,98139.98
2023-04-14T00:22:34.767Z,98139.27
2023-04-14T00:25:04.122Z,98148.14
2023-04-14T00:27:32.557Z,98147.95
2023-04-14T00:30:00.516Z,98148.33
2023-04-14T00:32:29.929Z,98146.69
2023-04-14T00:35:00.251Z,98149.10
2023-04-14T00:37:31.425Z,98145.08
2023-04-14T00:40:01.053Z,98149.66
2023-04-14T00:44:53.029Z,98144.29
2023-04-14T00:47:22.277Z,98142.47
2023-04-14T00:49:50.407Z,98143.23
2023-04-14T00:52:18.091Z,98136.77
2023-04-14T00:54:44.843Z,98139.96
2023-04-14T00:57:11.809Z,98140.95
2023-04-14T00:59:41.977Z,98144.31
2023-04-14T01:02:09.154Z,98145.68
2023-04-14T01:04:51.981Z,98144.05
2023-04-14T01:07:21.741Z,98145.18
2023-04-14T01:09:48.602Z,98150.96
2023-04-14T01:12:39.922Z,98148.63
2023-04-14T01:15:29.135Z,98152.71
2023-04-14T01:18:08.185Z,98142.06
2023-04-14T01:20:43.519Z,98151.29
2023-04-14T01:23:18.134Z,98153.50
2023-04-14T01:26:02.319Z,98151.48
2023-04-14T01:28:58.298Z,98154.73
2023-04-14T01:31:43.949Z,98151.98
2023-04-14T01:34:26.787Z,98154.34
2023-04-14T01:36:58.016Z,98153.06
2023-04-14T01:39:34.276Z,98157.16
2023-04-14T01:42:05.384Z,98154.34
2023-04-14T01:44:32.374Z,98159.47
2023-04-14T01:47:02.863Z,98164.56
2023-04-14T01:49:31.162Z,98166.88
2023-04-14T01:52:00.437Z,98161.45
2023-04-14T01:54:28.957Z,98163.20
2023-04-14T01:56:56.476Z,98163.88
2023-04-14T01:59:23.489Z,98165.73
2023-04-14T02:01:50.470Z,98167.45
2023-04-14T02:04:22.314Z,98164.23
2023-04-14T02:06:50.019Z,98167.85
2023-04-14T02:09:17.083Z,98169.42
2023-04-14T02:11:44.297Z,98169.60
2023-04-14T02:14:11.040Z,98171.80
2023-04-14T02:16:38.364Z,98169.04
2023-04-14T02:19:05.551Z,98170.52
2023-04-14T02:21:37.101Z,98173.36
2023-04-14T02:24:04.488Z,98179.42
2023-04-14T02:26:32.067Z,98178.38
2023-04-14T02:29:02.788Z,98183.07
2023-04-14T02:31:29.793Z,98182.95
2023-04-14T02:33:56.478Z,98186.23
2023-04-14T02:36:32.520Z,98191.03
2023-04-14T02:39:09.882Z,98193.03
2023-04-14T02:41:37.699Z,98197.11
2023-04-14T02:44:17.069Z,98191.99
2023-04-14T02:47:03.556Z,98197.53
2023-04-14T02:49:39.717Z,98202.46
2023-04-14T02:52:06.850Z,98207.95
2023-04-14T02:54:35.991Z,98207.04
2023-04-14T02:57:03.582Z,98206.45
2023-04-14T02:59:31.747Z,98206.18
2023-04-14T03:02:05.468Z,98204.78
2023-04-14T03:04:34.850Z,98211.37
2023-04-14T03:07:07.402Z,98220.15
2023-04-14T03:09:34.293Z,98224.54
2023-04-14T03:12:03.301Z,98224.38
2023-04-14T03:14:31.227Z,98227.86
2023-04-14T03:16:57.920Z,98230.22
2023-04-14T03:19:24.989Z,98228.12
2023-04-14T03:21:54.727Z,98224.64
2023-04-14T03:24:24.045Z,98225.95
2023-04-14T03:26:55.992Z,98223.66
2023-04-14T03:29:27.043Z,98221.23
2023-04-14T03:31:54.706Z,98220.60
2023-04-14T03:34:22.988Z,98225.39
2023-04-14T03:36:50.842Z,98226.56
2023-04-14T03:39:18.950Z,98226.54
2023-04-14T03:41:48.125Z,98228.80
2023-04-14T03:44:15.951Z,98224.99
2023-04-14T03:46:48.603Z,98227.14
2023-04-14T03:49:16.712Z,98231.59
2023-04-14T03:51:44.271Z,98235.62
2023-04-14T03:54:11.301Z,98235.58
2023-04-14T03:56:40.665Z,98234.93
2023-04-14T03:59:11.966Z,98242.36
2023-04-14T04:01:39.675Z,98240.86
2023-04-14T04:04:07.752Z,98244.25
2023-04-14T04:06:36.505Z,98242.97
2023-04-14T04:09:03.394Z,98248.66
2023-04-14T04:11:30.393Z,98243.34
2023-04-14T04:13:58.881Z,98246.76
2023-04-14T04:16:26.115Z,98246.36
2023-04-14T04:18:52.705Z,98247.00
2023-04-14T04:21:23.673Z,98253.75
2023-04-14T04:23:53.772Z,98254.96
2023-04-14T04:26:23.223Z,98254.44
2023-04-14T04:28:57.280Z,98256.05
2023-04-14T04:31:25.190Z,98252.26
2023-04-14T04:33:51.984Z,98258.97
2023-04-14T04:36:27.754Z,98260.17
2023-04-14T04:38:56.395Z,98263.11
2023-04-14T04:41:28.556Z,98266.55
2023-04-14T04:43:56.267Z,98268.00
2023-04-14T04:46:43.359Z,98270.13
2023-04-14T04:49:12.209Z,98273.02
2023-04-14T04:51:38.873Z,98279.52
2023-04-14T04:54:06.017Z,98279.80
2023-04-14T04:56:33.333Z,98281.87
2023-04-14T04:59:00.269Z,98286.31
2023-04-14T05:01:27.464Z,98292.44
2023-04-14T05:03:54.810Z,98285.10
2023-04-14T05:06:21.774Z,98298.51
2023-04-14T05:08:53.558Z,98296.56
2023-04-14T05:11:21.247Z,98301.53
2023-04-14T05:13:47.859Z,98307.34
2023-04-14T05:16:16.599Z,98302.08
2023-04-14T05:18:45.983Z,98303.90
2023-04-14T05:21:13.770Z,98309.22
2023-04-14T05:23:43.016Z,98302.14
2023-04-14T05:26:39.064Z,98310.93
2023-04-14T05:29:02.958Z,98314.35
2023-04-14T05:31:31.239Z,98317.50
2023-04-14T05:33:57.874Z,98322.09
2023-04-14T05:36:24.480Z,98317.98
2023-04-14T05:38:51.377Z,98317.91
2023-04-14T05:41:20.649Z,98324.02
2023-04-14T05:43:47.411Z,98321.58
2023-04-14T05:46:13.930Z,98320.98
2023-04-14T05:48:41.104Z,98319.48
2023-04-14T05:51:08.395Z,98319.16
2023-04-14T05:53:34.976Z,98321.09
2023-04-14T05:56:01.685Z,98327.75
2023-04-14T05:58:28.767Z,98333.36
2023-04-14T06:00:55.525Z,98333.55
2023-04-14T06:03:31.137Z,98334.00
2023-04-14T06:05:57.850Z,98338.00
2023-04-14T06:08:24.906Z,98336.70
2023-04-14T06:10:51.834Z,98341.42
2023-04-14T06:13:22.382Z,98344.40
2023-04-14T06:15:50.347Z,98341.69
2023-04-14T06:18:22.344Z,98345.42
2023-04-14T06:20:49.737Z,98348.48
2023-04-14T06:23:16.439Z,98351.70
2023-04-14T06:25:48.607Z,98349.92
2023-04-14T06:28:15.540Z,98352.95
2023-04-14T06:30:42.076Z,98355.02
2023-04-14T06:33:08.861Z,98358.48
2023-04-14T06:35:36.218Z,98358.11
2023-04-14T06:38:02.793Z,98364.38
2023-04-14T06:40:29.513Z,98369.26
2023-04-14T06:42:56.626Z,98370.45
2023-04-14T06:45:23.810Z,98373.22
2023-04-14T06:47:50.933Z,98366.27
2023-04-14T06:50:19.424Z,98369.18
2023-04-14T06:52:48.720Z,98371.60
2023-04-14T06:55:15.715Z,98370.73
2023-04-14T06:57:46.270Z,98377.94
2023-04-14T07:00:13.151Z,98379.52
2023-04-14T07:02:41.423Z,98389.20
2023-04-14T07:05:08.211Z,98390.98
2023-04-14T07:07:36.753Z,98391.55
2023-04-14T07:10:03.600Z,98397.94
2023-04-14T07:12:30.716Z,98397.17
2023-04-14T07:14:57.211Z,98397.70
2023-04-14T07:17:23.856Z,98401.77
2023-04-14T07:19:51.208Z,98399.27
2023-04-14T07:22:17.875Z,98400.09
2023-04-14T07:24:45.263Z,98396.69
2023-04-14T07:27:14.512Z,98405.37
2023-04-14T07:29:41.570Z,98404.92
2023-04-14T07:32:12.632Z,98406.17
2023-04-14T07:34:42.985Z,98406.73
2023-04-14T07:37:10.474Z,98410.45
2023-04-14T07:39:37.744Z,98409.19
2023-04-14T07:42:04.964Z,98410.17
2023-04-14T07:44:37.285Z,98408.86
2023-04-14T07:47:03.845Z,98405.02
2023-04-14T07:49:31.142Z,98402.17
2023-04-14T07:51:57.820Z,98405.91
2023-04-14T07:54:24.415Z,98403.73
2023-04-14T07:56:51.008Z,98406.59
2023-04-14T07:59:17.518Z,98404.02
2023-04-14T08:01:44.392Z,98411.20
2023-04-14T08:04:11.887Z,98414.85
2023-04-14T08:06:43.552Z,98412.16
2023-04-14T08:09:11.622Z,98411.05
2023-04-14T08:11:38.374Z,98413.52
2023-04-14T08:14:05.090Z,98417.88
2023-04-14T08:16:35.859Z,98425.30
2023-04-14T08:19:05.565Z,98423.02
2023-04-14T08:21:32.786Z,98424.63
2023-04-14T08:23:59.482Z,98424.75
2023-04-14T08:26:27.970Z,98429.93
2023-04-14T08:28:55.083Z,98432.11
2023-04-14T08:31:22.388Z,98429.63
2023-04-14T08:33:49.928Z,98426.92
2023-04-14T08:36:16.534Z,98419.46
2023-04-14T08:38:45.921Z,98410.77
2023-04-14T08:41:13.123Z,98412.48
2023-04-14T08:43:39.854Z,98404.05
2023-04-14T08:46:10.952Z,98406.51
2023-04-14T08:48:39.376Z,98408.08
2023-04-14T08:51:21.793Z,98412.41
2023-04-14T08:53:52.105Z,98405.63
2023-04-14T08:56:18.711Z,98409.35
2023-04-14T08:58:46.695Z,98414.10
2023-04-14T09:01:14.764Z,98419.38
2023-04-14T09:03:43.378Z,98416.04
2023-04-14T09:06:10.274Z,98423.99
2023-04-14T09:08:38.558Z,98421.31
2023-04-14T09:11:06.228Z,98425.83
2023-04-14T09:13:33.032Z,98426.14
2023-04-14T09:16:01.084Z,98433.73
2023-04-14T09:18:28.256Z,98431.66
2023-04-14T09:21:29.366Z,98432.64
2023-04-14T09:23:46.634Z,98425.80
2023-04-14T09:26:13.407Z,98430.06
2023-04-14T09:28:40.720Z,98435.80
2023-04-14T09:31:10.814Z,98438.45
2023-04-14T09:33:49.563Z,98436.39
2023-04-14T09:36:22.798Z,98442.94
2023-04-14T09:38:50.614Z,98446.20
2023-04-14T09:41:19.283Z,98448.80
2023-04-14T09:43:46.489Z,98447.40
2023-04-14T09:46:14.840Z,98449.73
2023-04-14T09:48:53.339Z,98454.98
2023-04-14T09:51:27.143Z,98455.34
2023-04-14T09:53:53.904Z,98453.33
2023-04-14T09:56:27.751Z,98459.29
2023-04-14T09:59:01.318Z,98459.85
2023-04-14T10:01:33.336Z,98463.66
2023-04-14T10:04:01.833Z,98461.23
2023-04-14T10:06:33.188Z,98460.84
2023-04-14T10:09:00.821Z,98458.68
2023-04-14T10:11:29.592Z,98458.35
2023-04-14T10:14:03.358Z,98455.06
2023-04-14T10:16:31.146Z,98456.19
2023-04-14T10:18:58.504Z,98464.67
2023-04-14T10:21:27.626Z,98468.36
2023-04-14T10:23:57.492Z,98476.05
2023-04-14T10:26:24.788Z,98474.58
2023-04-14T10:28:53.958Z,98487.86
2023-04-14T10:31:25.944Z,98483.36
2023-04-14T10:33:53.519Z,98484.76
2023-04-14T10:36:28.276Z,98482.66
2023-04-14T10:39:02.660Z,98485.80
2023-04-14T10:41:42.223Z,98490.14
2023-04-14T10:44:32.059Z,98491.64
2023-04-14T10:47:01.373Z,98492.86
2023-04-14T10:49:36.604Z,98489.94
2023-04-14T10:52:06.105Z,98490.67
2023-04-14T10:54:54.974Z,98492.76
2023-04-14T10:57:22.850Z,98493.92
2023-04-14T10:59:59.496Z,98492.72
2023-04-14T11:02:31.448Z,98490.83
2023-04-14T11:05:05.473Z,98490.73
2023-04-14T11:07:58.794Z,98499.02
2023-04-14T11:10:30.655Z,98500.59
2023-04-14T11:13:03.114Z,98502.99
2023-04-14T11:15:56.626Z,98502.68
2023-04-14T11:18:29.341Z,98515.41
2023-04-14T11:21:10.104Z,98514.77
2023-04-14T11:23:40.482Z,98523.48
2023-04-14T11:26:11.557Z,98521.56
2023-04-14T11:28:45.569Z,98525.23
2023-04-14T11:31:14.658Z,98522.44
2023-04-14T11:33:41.317Z,98514.69
2023-04-14T11:36:09.137Z,98514.83
2023-04-14T11:38:39.777Z,98516.54
2023-04-14T11:41:06.710Z,98517.11
2023-04-14T11:43:38.111Z,98517.52
2023-04-14T11:46:04.968Z,98514.55
2023-04-14T11:48:33.178Z,98512.61
2023-04-14T11:51:02.772Z,98515.58
2023-04-14T11:53:29.752Z,98516.90
2023-04-14T11:56:00.168Z,98519.88
2023-04-14T11:58:28.159Z,98515.70
2023-04-14T12:00:56.930Z,98513.46
2023-04-14T12:03:36.170Z,98513.28
2023-04-14T12:06:03.354Z,98517.08
2023-04-14T12:08:31.582Z,98516.84
2023-04-14T12:11:12.881Z,98510.36
2023-04-14T12:13:43.309Z,98517.46
2023-04-14T12:16:11.063Z,98512.45
2023-04-14T12:18:40.072Z,98520.14
2023-04-14T12:21:09.769Z,98511.94
2023-04-14T12:23:41.749Z,98511.28
2023-04-14T12:26:11.298Z,98504.20
2023-04-14T12:28:41.151Z,98507.67
2023-04-14T12:31:08.787Z,98509.77
2023-04-14T12:33:35.805Z,98510.29
2023-04-14T12:36:04.215Z,98507.36
2023-04-14T12:38:30.805Z,98508.77
2023-04-14T12:40:57.422Z,98504.39
2023-04-14T12:43:42.224Z,98510.26
2023-04-14T12:46:10.162Z,98505.21
2023-04-14T12:48:45.309Z,98503.40
2023-04-14T12:51:17.135Z,98508.89
2023-04-14T12:53:45.025Z,98509.29
2023-04-14T12:56:11.569Z,98504.99
2023-04-14T12:58:42.266Z,98501.05
2023-04-14T13:02:36.389Z,98504.73
2023-04-14T13:05:05.250Z,98500.89
2023-04-14T13:07:33.515Z,98504.91
2023-04-14T13:10:02.781Z,98497.59
2023-04-14T13:12:31.817Z,98512.72
2023-04-14T13:15:00.468Z,98508.42
2023-04-14T13:17:29.372Z,98515.23
2023-04-14T13:19:57.508Z,98512.81
2023-04-14T13:22:26.665Z,98517.70
2023-04-14T13:24:58.086Z,98514.03
2023-04-14T13:27:26.101Z,98515.73
2023-04-14T13:29:56.060Z,98510.04
2023-04-14T13:32:24.080Z,98516.88
2023-04-14T13:34:52.797Z,98519.00
2023-04-14T13:37:22.066Z,98512.65
2023-04-14T13:39:50.127Z,98514.77
2023-04-14T13:42:18.568Z,98519.95
2023-04-14T13:44:47.652Z,98518.23
2023-04-14T13:47:15.721Z,98520.77
2023-04-14T13:49:44.670Z,98521.17
2023-04-14T13:52:12.575Z,98512.52
2023-04-14T13:54:41.093Z,98519.46
2023-04-14T13:57:09.328Z,98519.16
2023-04-14T13:59:38.440Z,98515.48
2023-04-14T14:02:08.347Z,98524.29
2023-04-14T14:04:38.270Z,98509.23
2023-04-14T14:07:06.863Z,98516.95
2023-04-14T14:09:35.064Z,98508.55
2023-04-14T14:12:05.407Z,98520.20
2023-04-14T14:14:34.667Z,98524.96
2023-04-14T14:17:02.582Z,98534.05
2023-04-14T14:19:32.012Z,98537.63
2023-04-14T14:21:59.876Z,98531.58
2023-04-14T14:24:28.882Z,98538.99
2023-04-14T14:26:56.979Z,98533.93
2023-04-14T14:29:24.985Z,98546.95
2023-04-14T14:31:52.996Z,98552.00
2023-04-14T14:34:21.246Z,98552.28
2023-04-14T14:36:49.568Z,98549.30
2023-04-14T14:39:21.636Z,98545.91
2023-04-14T14:41:49.590Z,98553.17
2023-04-14T14:44:18.003Z,98558.66
2023-04-14T14:46:47.348Z,98566.81
2023-04-14T14:49:15.627Z,98571.87
2023-04-14T14:51:43.863Z,98578.51
2023-04-14T14:54:12.052Z,98576.77
2023-04-14T14:56:41.369Z,98580.42
2023-04-14T14:59:09.420Z,98583.07
2023-04-14T15:01:37.581Z,98578.70
2023-04-14T15:04:06.785Z,98593.30
2023-04-14T15:06:36.001Z,98590.13
2023-04-14T15:09:05.495Z,98588.02
2023-04-14T15:11:38.801Z,98587.40
2023-04-14T15:14:06.946Z,98591.19
2023-04-14T15:16:35.114Z,98597.77
2023-04-14T15:19:05.028Z,98602.23
2023-04-14T15:21:33.251Z,98599.77
2023-04-14T15:24:01.926Z,98605.34
2023-04-14T15:26:32.469Z,98605.41
2023-04-14T15:29:02.654Z,98610.28
2023-04-14T15:31:31.183Z,98614.03
2023-04-14T15:34:00.488Z,98612.46
2023-04-14T15:36:28.992Z,98616.79
2023-04-14T15:38:57.160Z,98622.89
2023-04-14T15:41:26.601Z,98625.23
2023-04-14T15:43:54.523Z,98623.11
2023-04-14T15:46:23.001Z,98630.05
2023-04-14T15:48:51.301Z,98630.87
2023-04-14T15:51:20.150Z,98624.71
2023-04-14T15:53:48.114Z,98626.66
2023-04-14T15:56:16.050Z,98629.92
2023-04-14T15:58:45.659Z,98633.04
2023-04-14T16:01:13.826Z,98627.73
2023-04-14T16:03:43.438Z,98624.33
2023-04-14T16:06:12.823Z,98633.09
2023-04-14T16:08:41.501Z,98638.59
2023-04-14T16:11:16.744Z,98642.89
2023-04-14T16:13:56.947Z,98644.38
2023-04-14T16:16:26.202Z,98653.23
2023-04-14T16:18:55.540Z,98659.70
2023-04-14T16:21:24.502Z,98661.37
2023-04-14T16:23:55.401Z,98665.41
2023-04-14T16:26:25.542Z,98668.34
2023-04-14T16:29:03.426Z,98666.02
2023-04-14T16:31:34.018Z,98668.33
2023-04-14T16:34:05.260Z,98667.84
2023-04-14T16:36:38.649Z,98672.48
2023-04-14T16:39:16.607Z,98672.69
2023-04-14T16:41:46.650Z,98671.08
2023-04-14T16:44:15.209Z,98671.84
2023-04-14T16:46:43.743Z,98682.31
2023-04-14T16:49:13.944Z,98687.27
2023-04-14T16:51:47.506Z,98678.83
2023-04-14T16:54:17.255Z,98684.89
2023-04-14T16:56:45.939Z,98686.52
2023-04-14T16:59:15.563Z,98693.40
2023-04-14T17:01:44.932Z,98697.44
2023-04-14T17:04:14.320Z,98693.27
2023-04-14T17:06:43.719Z,98701.14
2023-04-14T17:09:12.159Z,98701.56
2023-04-14T17:11:40.206Z,98702.93
2023-04-14T17:14:09.186Z,98710.73
2023-04-14T17:16:38.234Z,98712.81
2023-04-14T17:19:06.248Z,98716.98
2023-04-14T17:21:38.638Z,98715.76
2023-04-14T17:24:11.738Z,98721.86
2023-04-14T17:26:39.859Z,98718.79
2023-04-14T17:29:07.775Z,98731.36
2023-04-14T17:31:37.452Z,98731.13
2023-04-14T17:34:10.710Z,98732.37
2023-04-14T17:36:39.233Z,98738.61
2023-04-14T17:39:10.440Z,98738.97
2023-04-14T17:41:39.563Z,98740.18
2023-04-14T17:44:08.672Z,98748.05
2023-04-14T17:46:37.444Z,98747.02
2023-04-14T17:49:05.825Z,98750.41
2023-04-14T17:51:35.328Z,98748.80
2023-04-14T17:54:06.043Z,98753.55
2023-04-14T17:56:36.993Z,98753.38
2023-04-14T17:59:06.843Z,98752.45
2023-04-14T18:01:35.607Z,98750.89
2023-04-14T18:04:04.597Z,98754.77
2023-04-14T18:06:34.063Z,98759.05
2023-04-14T18:09:05.629Z,98765.15
2023-04-14T18:11:35.355Z,98761.92
2023-04-14T18:14:03.866Z,98759.27
2023-04-14T18:16:33.853Z,98764.80
2023-04-14T18:19:02.207Z,98765.00
2023-04-14T18:21:32.666Z,98760.07
2023-04-14T18:26:39.704Z,98760.09
2023-04-14T18:29:08.198Z,98758.45
2023-04-14T18:31:38.089Z,98765.05
2023-04-14T18:34:23.119Z,98766.73
2023-04-14T18:36:51.412Z,98762.55
2023-04-14T18:39:19.429Z,98757.64
2023-04-14T18:41:49.304Z,98763.80
2023-04-14T18:44:18.378Z,98761.18
2023-04-14T18:46:46.449Z,98761.30
2023-04-14T18:49:14.554Z,98755.38
2023-04-14T18:51:43.393Z,98759.61
2023-04-14T18:54:13.256Z,98753.43
2023-04-14T18:56:45.027Z,98743.65
2023-04-14T18:59:13.127Z,98744.21
2023-04-14T19:01:41.448Z,98742.89
2023-04-14T19:04:10.433Z,98747.49
2023-04-14T19:06:40.836Z,98747.30
2023-04-14T19:09:08.964Z,98746.95
2023-04-14T19:11:42.406Z,98736.17
2023-04-14T19:14:13.118Z,98748.52
2023-04-14T19:16:41.161Z,98751.36
2023-04-14T19:19:09.206Z,98745.30
2023-04-14T19:21:40.394Z,98746.07
2023-04-14T19:24:10.224Z,98747.33
2023-04-14T19:26:40.965Z,98753.30
2023-04-14T19:29:11.145Z,98752.69
2023-04-14T19:31:40.916Z,98750.44
2023-04-14T19:34:09.508Z,98751.36
2023-04-14T19:36:40.320Z,98752.46
2023-04-14T19:39:08.487Z,98753.91
2023-04-14T19:41:36.894Z,98761.08
2023-04-14T19:44:08.526Z,98754.54
2023-04-14T19:46:37.506Z,98757.38
2023-04-14T19:49:07.468Z,98754.79
2023-04-14T19:51:36.680Z,98746.73
2023-04-14T19:54:09.548Z,98747.70
2023-04-14T19:56:38.315Z,98749.77
2023-04-14T19:59:06.262Z,98747.74
2023-04-14T20:01:37.113Z,98748.10
2023-04-14T20:04:12.106Z,98753.92
2023-04-14T20:06:41.402Z,98758.96
2023-04-14T20:09:13.309Z,98760.68
2023-04-14T20:11:41.718Z,98766.45
2023-04-14T20:14:10.780Z,98769.08
2023-04-14T20:16:40.709Z,98773.70
2023-04-14T20:19:12.830Z,98773.31
2023-04-14T20:21:41.113Z,98766.85
2023-04-14T20:24:09.243Z,98765.68
2023-04-14T20:26:42.825Z,98767.20
2023-04-14T20:29:12.348Z,98763.90
2023-04-14T20:31:42.776Z,98764.02
2023-04-14T20:34:11.673Z,98762.63
2023-04-14T20:36:40.630Z,98773.22
2023-04-14T20:39:09.139Z,98778.73
2023-04-14T20:41:38.353Z,98780.25
2023-04-14T20:44:07.550Z,98782.86
2023-04-14T20:46:35.810Z,98787.22
2023-04-14T20:49:04.323Z,98792.55
2023-04-14T20:51:33.903Z,98790.41
2023-04-14T20:54:02.037Z,98799.34
2023-04-14T20:56:35.251Z,98804.17
2023-04-14T20:59:03.780Z,98811.08
2023-04-14T21:01:32.669Z,98812.19
2023-04-14T21:04:00.754Z,98820.94
2023-04-14T21:06:31.750Z,98817.57
2023-04-14T21:09:01.391Z,98818.52
2023-04-14T21:11:29.818Z,98827.67
2023-04-14T21:15:30.285Z,98816.16
2023-04-14T21:16:46.710Z,98820.30
2023-04-14T21:19:15.191Z,98830.52
2023-04-14T21:21:45.447Z,98841.62
2023-04-14T21:24:14.069Z,98839.11
2023-04-14T21:26:42.476Z,98846.50
2023-04-14T21:29:14.422Z,98838.08
2023-04-14T21:31:42.822Z,98841.60
2023-04-14T21:34:10.832Z,98845.02
2023-04-14T21:36:39.437Z,98863.23
2023-04-14T21:39:07.510Z,98873.14
2023-04-14T21:41:35.959Z,98877.54
2023-04-14T21:44:04.156Z,98870.03
2023-04-14T21:46:35.693Z,98883.08
2023-04-14T21:49:04.579Z,98896.13
2023-04-14T21:51:32.852Z,98890.37
2023-04-14T21:54:01.856Z,98897.14
2023-04-14T21:56:31.491Z,98906.02
2023-04-14T21:59:01.136Z,98909.88
2023-04-14T22:01:31.880Z,98912.65
2023-04-14T22:04:01.088Z,98914.23
2023-04-14T22:06:29.738Z,98915.27
2023-04-14T22:09:03.460Z,98918.66
2023-04-14T22:11:32.419Z,98915.38
2023-04-14T22:14:02.861Z,98916.85
2023-04-14T22:16:37.808Z,98920.05
2023-04-14T22:19:09.314Z,98919.19
2023-04-14T22:21:38.026Z,98919.65
2023-04-14T22:24:06.316Z,98913.74
2023-04-14T22:26:34.399Z,98922.30
2023-04-14T22:29:02.757Z,98924.84
2023-04-14T22:31:31.320Z,98925.16
2023-04-14T22:33:59.383Z,98926.45
2023-04-14T22:36:29.149Z,98915.30
2023-04-14T22:38:57.135Z,98924.08
2023-04-14T22:41:25.146Z,98920.24
2023-04-14T22:43:53.532Z,98926.30
2023-04-14T22:46:25.069Z,98922.73
2023-04-14T22:48:53.057Z,98920.44
2023-04-14T22:51:21.590Z,98919.75
2023-04-14T22:53:54.126Z,98920.07
2023-04-14T22:56:23.278Z,98927.27
2023-04-14T22:58:51.281Z,98923.80
2023-04-14T23:01:24.560Z,98921.51
2023-04-14T23:03:55.924Z,98920.20
2023-04-14T23:06:24.265Z,98917.33
2023-04-14T23:08:54.338Z,98917.08
2023-04-14T23:11:23.539Z,98918.00
2023-04-14T23:13:52.583Z,98914.96
2023-04-14T23:16:22.423Z,98914.91
2023-04-14T23:18:53.047Z,98914.61
2023-04-14T23:21:24.813Z,98910.52
2023-04-14T23:23:52.986Z,98912.84
2023-04-14T23:26:27.589Z,98902.79
2023-04-14T23:28:57.289Z,98905.83
2023-04-14T23:31:28.252Z,98906.88
2023-04-14T23:33:59.206Z,98906.48
2023-04-14T23:36:28.783Z,98895.66
2023-04-14T23:38:57.278Z,98887.27
2023-04-14T23:41:26.695Z,98893.60
2023-04-14T23:43:55.382Z,98893.44
2023-04-14T23:46:23.834Z,98895.13
2023-04-14T23:48:53.835Z,98886.36
2023-04-14T23:51:24.003Z,98888.17
2023-04-14T23:53:52.122Z,98894.67
2023-04-14T23:56:24.256Z,98899.84
2023-04-14T23:58:52.197Z,98898.71
